McCarran, Nevada
Current Conditions -  °F | °C
As of 11:55 PM on Monday 20 Oct 2014 (Local Time) from KRNO Reporting Station
Few Clouds Few Clouds  
Wind Chill: 44°   Ceiling: Unl
Heat Index: 49°   Visibility: 10mi
Dew Point: 36°   Wind: 12mph
Humidity: 61%   Direction: 270°W
Pressure: 30"   Gusts: NA
Location:  39.5403°N, 119.672°W
Report Text: KRNO 210655Z 27010KT 10SM FEW065 09/02 A3000 RMK AO2 RAE02 SLP122 P0000 T00940022
Loading
Personal Weather Stations






























Interactive Weather Map
Tropical Storm Tracking
New forecast layout! Learn more

10-Day Weather Forecast

Advertisements
Track Severe Weather on mobile